Big Falls, Minnesota
Current Conditions -  °F | °C
As of 6:53 AM on Monday 22 Dec 2014 (Local Time) from KFOZ Reporting Station
Haze Haze  
Wind Chill: 28°   Ceiling: 400
Heat Index: 34°   Visibility: 5mi
Dew Point: 34°   Wind: 7mph
Humidity: 100%   Direction: 130°SE
Pressure: 29.63"   Gusts: NA
Location:  48.19°N, 93.81°W
Report Text: KFOZ 221253Z AUTO 13006KT 5SM BR OVC004 01/01 A2963 RMK AO2
Loading
Personal Weather Stations






























Interactive Weather Map New forecast layout! Learn more

10-Day Weather Forecast

Advertisements
Track Severe Weather on mobile